<?xml version="1.0" encoding="UTF-8" standalone="no" ?>
<gpx xmlns="http://www.topografix.com/GPX/1/1" xmlns:xsi="http://www.w3.org/2001/XMLSchema-instance" xsi:schemaLocation="http://www.topografix.com/GPX/1/1 http://www.topografix.com/GPX/1/1/gpx.xsd" version="1.1" creator="VisuGPX - https://www.visugpx.com">
  <metadata>
    <name>22 Juin - Balade autour d'Imlil</name>
    <desc><![CDATA[Balade autour d'Imlil - a preciser]]></desc>
  </metadata>
  <trk>
    <name><![CDATA[2018-06-22 11:19:49]]></name>
    <trkseg>
      <trkpt lat="31.13497" lon="-7.92844">
        <ele>1809.47</ele>
        <time>2018-06-22T07:12:59Z</time>
      </trkpt>
      <trkpt lat="31.13347" lon="-7.92425">
        <ele>1854.53</ele>
        <time>2018-06-22T07:47:11Z</time>
      </trkpt>
      <trkpt lat="31.13372" lon="-7.92365">
        <ele>1858.36</ele>
        <time>2018-06-22T07:48:11Z</time>
      </trkpt>
      <trkpt lat="31.13392" lon="-7.92308">
        <ele>1854.83</ele>
        <time>2018-06-22T07:49:11Z</time>
      </trkpt>
      <trkpt lat="31.13416" lon="-7.92221">
        <ele>1851.24</ele>
        <time>2018-06-22T07:50:11Z</time>
      </trkpt>
      <trkpt lat="31.13426" lon="-7.9214">
        <ele>1850.57</ele>
        <time>2018-06-22T07:51:11Z</time>
      </trkpt>
      <trkpt lat="31.13384" lon="-7.92075">
        <ele>1856.76</ele>
        <time>2018-06-22T07:52:11Z</time>
      </trkpt>
      <trkpt lat="31.1332" lon="-7.92062">
        <ele>1857.71</ele>
        <time>2018-06-22T07:53:11Z</time>
      </trkpt>
      <trkpt lat="31.13278" lon="-7.92048">
        <ele>1850.38</ele>
        <time>2018-06-22T07:54:11Z</time>
      </trkpt>
      <trkpt lat="31.13303" lon="-7.92038">
        <ele>1839.45</ele>
        <time>2018-06-22T07:55:11Z</time>
      </trkpt>
      <trkpt lat="31.13293" lon="-7.92032">
        <ele>1834.89</ele>
        <time>2018-06-22T07:56:11Z</time>
      </trkpt>
      <trkpt lat="31.13262" lon="-7.9202">
        <ele>1829.47</ele>
        <time>2018-06-22T07:57:11Z</time>
      </trkpt>
      <trkpt lat="31.13258" lon="-7.9202">
        <ele>1829.49</ele>
        <time>2018-06-22T07:58:11Z</time>
      </trkpt>
      <trkpt lat="31.13261" lon="-7.92019">
        <ele>1829.67</ele>
        <time>2018-06-22T07:59:12Z</time>
      </trkpt>
      <trkpt lat="31.13257" lon="-7.92019">
        <ele>1829.66</ele>
        <time>2018-06-22T08:00:12Z</time>
      </trkpt>
      <trkpt lat="31.13241" lon="-7.92018">
        <ele>1828.26</ele>
        <time>2018-06-22T08:01:12Z</time>
      </trkpt>
      <trkpt lat="31.13184" lon="-7.91993">
        <ele>1826.52</ele>
        <time>2018-06-22T08:02:12Z</time>
      </trkpt>
      <trkpt lat="31.13126" lon="-7.91973">
        <ele>1825.71</ele>
        <time>2018-06-22T08:03:12Z</time>
      </trkpt>
      <trkpt lat="31.13071" lon="-7.91963">
        <ele>1828.1</ele>
        <time>2018-06-22T08:04:12Z</time>
      </trkpt>
      <trkpt lat="31.13015" lon="-7.91943">
        <ele>1828.38</ele>
        <time>2018-06-22T08:05:12Z</time>
      </trkpt>
      <trkpt lat="31.1296" lon="-7.91936">
        <ele>1828.38</ele>
        <time>2018-06-22T08:06:12Z</time>
      </trkpt>
      <trkpt lat="31.12913" lon="-7.91945">
        <ele>1827.99</ele>
        <time>2018-06-22T08:07:12Z</time>
      </trkpt>
      <trkpt lat="31.12905" lon="-7.91926">
        <ele>1833.33</ele>
        <time>2018-06-22T08:08:12Z</time>
      </trkpt>
      <trkpt lat="31.12884" lon="-7.91927">
        <ele>1842.75</ele>
        <time>2018-06-22T08:09:12Z</time>
      </trkpt>
      <trkpt lat="31.12862" lon="-7.91966">
        <ele>1846.68</ele>
        <time>2018-06-22T08:10:15Z</time>
      </trkpt>
      <trkpt lat="31.1288" lon="-7.91949">
        <ele>1845</ele>
        <time>2018-06-22T08:11:15Z</time>
      </trkpt>
      <trkpt lat="31.12884" lon="-7.91948">
        <ele>1842.26</ele>
        <time>2018-06-22T08:12:15Z</time>
      </trkpt>
      <trkpt lat="31.12881" lon="-7.91944">
        <ele>1843.8</ele>
        <time>2018-06-22T08:13:15Z</time>
      </trkpt>
      <trkpt lat="31.12873" lon="-7.91941">
        <ele>1846.65</ele>
        <time>2018-06-22T08:14:15Z</time>
      </trkpt>
      <trkpt lat="31.12871" lon="-7.91947">
        <ele>1846.63</ele>
        <time>2018-06-22T08:15:15Z</time>
      </trkpt>
      <trkpt lat="31.12871" lon="-7.91949">
        <ele>1846.64</ele>
        <time>2018-06-22T08:16:15Z</time>
      </trkpt>
      <trkpt lat="31.12869" lon="-7.91934">
        <ele>1847.41</ele>
        <time>2018-06-22T08:17:16Z</time>
      </trkpt>
      <trkpt lat="31.12863" lon="-7.91915">
        <ele>1855.68</ele>
        <time>2018-06-22T08:18:16Z</time>
      </trkpt>
      <trkpt lat="31.12856" lon="-7.91899">
        <ele>1864.66</ele>
        <time>2018-06-22T08:19:16Z</time>
      </trkpt>
      <trkpt lat="31.1284" lon="-7.91892">
        <ele>1872.52</ele>
        <time>2018-06-22T08:20:16Z</time>
      </trkpt>
      <trkpt lat="31.12812" lon="-7.91882">
        <ele>1880.12</ele>
        <time>2018-06-22T08:21:16Z</time>
      </trkpt>
      <trkpt lat="31.12787" lon="-7.91879">
        <ele>1887.39</ele>
        <time>2018-06-22T08:22:16Z</time>
      </trkpt>
      <trkpt lat="31.12781" lon="-7.91873">
        <ele>1895.57</ele>
        <time>2018-06-22T08:23:16Z</time>
      </trkpt>
      <trkpt lat="31.12774" lon="-7.91855">
        <ele>1903.58</ele>
        <time>2018-06-22T08:24:16Z</time>
      </trkpt>
      <trkpt lat="31.12751" lon="-7.91851">
        <ele>1911.4</ele>
        <time>2018-06-22T08:25:16Z</time>
      </trkpt>
      <trkpt lat="31.12721" lon="-7.91829">
        <ele>1923.04</ele>
        <time>2018-06-22T08:26:16Z</time>
      </trkpt>
      <trkpt lat="31.12708" lon="-7.91819">
        <ele>1924.44</ele>
        <time>2018-06-22T08:27:16Z</time>
      </trkpt>
      <trkpt lat="31.12703" lon="-7.91817">
        <ele>1925.19</ele>
        <time>2018-06-22T08:28:16Z</time>
      </trkpt>
      <trkpt lat="31.12717" lon="-7.91822">
        <ele>1925.08</ele>
        <time>2018-06-22T08:29:16Z</time>
      </trkpt>
      <trkpt lat="31.12714" lon="-7.91825">
        <ele>1924.35</ele>
        <time>2018-06-22T08:30:17Z</time>
      </trkpt>
      <trkpt lat="31.12714" lon="-7.91823">
        <ele>1924.5</ele>
        <time>2018-06-22T08:31:17Z</time>
      </trkpt>
      <trkpt lat="31.12726" lon="-7.9182">
        <ele>1925.13</ele>
        <time>2018-06-22T08:32:17Z</time>
      </trkpt>
      <trkpt lat="31.12706" lon="-7.91802">
        <ele>1925.46</ele>
        <time>2018-06-22T08:33:19Z</time>
      </trkpt>
      <trkpt lat="31.12724" lon="-7.91823">
        <ele>1925.52</ele>
        <time>2018-06-22T08:34:20Z</time>
      </trkpt>
      <trkpt lat="31.12712" lon="-7.91827">
        <ele>1924.73</ele>
        <time>2018-06-22T08:35:20Z</time>
      </trkpt>
      <trkpt lat="31.12713" lon="-7.91837">
        <ele>1924.3</ele>
        <time>2018-06-22T08:36:20Z</time>
      </trkpt>
      <trkpt lat="31.12712" lon="-7.91839">
        <ele>1924.57</ele>
        <time>2018-06-22T08:37:20Z</time>
      </trkpt>
      <trkpt lat="31.12713" lon="-7.91836">
        <ele>1924.47</ele>
        <time>2018-06-22T08:38:20Z</time>
      </trkpt>
      <trkpt lat="31.12712" lon="-7.91829">
        <ele>1924.81</ele>
        <time>2018-06-22T08:39:20Z</time>
      </trkpt>
      <trkpt lat="31.12677" lon="-7.91859">
        <ele>1923.72</ele>
        <time>2018-06-22T08:40:20Z</time>
      </trkpt>
      <trkpt lat="31.12686" lon="-7.91847">
        <ele>1923.47</ele>
        <time>2018-06-22T08:41:20Z</time>
      </trkpt>
      <trkpt lat="31.12698" lon="-7.91835">
        <ele>1923.85</ele>
        <time>2018-06-22T08:42:20Z</time>
      </trkpt>
      <trkpt lat="31.12705" lon="-7.91832">
        <ele>1924.63</ele>
        <time>2018-06-22T08:43:20Z</time>
      </trkpt>
      <trkpt lat="31.12705" lon="-7.91833">
        <ele>1924.73</ele>
        <time>2018-06-22T08:44:20Z</time>
      </trkpt>
      <trkpt lat="31.12706" lon="-7.91834">
        <ele>1924.41</ele>
        <time>2018-06-22T08:45:20Z</time>
      </trkpt>
      <trkpt lat="31.12704" lon="-7.91832">
        <ele>1924.81</ele>
        <time>2018-06-22T08:46:20Z</time>
      </trkpt>
      <trkpt lat="31.12702" lon="-7.9183">
        <ele>1924.79</ele>
        <time>2018-06-22T08:47:21Z</time>
      </trkpt>
      <trkpt lat="31.12711" lon="-7.91828">
        <ele>1924.6</ele>
        <time>2018-06-22T08:48:23Z</time>
      </trkpt>
      <trkpt lat="31.12704" lon="-7.91827">
        <ele>1925.85</ele>
        <time>2018-06-22T08:49:23Z</time>
      </trkpt>
      <trkpt lat="31.12713" lon="-7.91825">
        <ele>1924.52</ele>
        <time>2018-06-22T08:50:23Z</time>
      </trkpt>
      <trkpt lat="31.12732" lon="-7.91796">
        <ele>1928.73</ele>
        <time>2018-06-22T08:51:23Z</time>
      </trkpt>
      <trkpt lat="31.12756" lon="-7.91756">
        <ele>1932.15</ele>
        <time>2018-06-22T08:52:23Z</time>
      </trkpt>
      <trkpt lat="31.12761" lon="-7.9172">
        <ele>1935.96</ele>
        <time>2018-06-22T08:53:23Z</time>
      </trkpt>
      <trkpt lat="31.12774" lon="-7.9166">
        <ele>1929.29</ele>
        <time>2018-06-22T08:54:23Z</time>
      </trkpt>
      <trkpt lat="31.1278" lon="-7.91607">
        <ele>1925.22</ele>
        <time>2018-06-22T08:55:23Z</time>
      </trkpt>
      <trkpt lat="31.1282" lon="-7.91569">
        <ele>1916.94</ele>
        <time>2018-06-22T08:56:23Z</time>
      </trkpt>
      <trkpt lat="31.12862" lon="-7.91586">
        <ele>1910.25</ele>
        <time>2018-06-22T08:57:23Z</time>
      </trkpt>
      <trkpt lat="31.12903" lon="-7.91504">
        <ele>1897.64</ele>
        <time>2018-06-22T08:58:23Z</time>
      </trkpt>
      <trkpt lat="31.12933" lon="-7.91427">
        <ele>1888.94</ele>
        <time>2018-06-22T08:59:23Z</time>
      </trkpt>
      <trkpt lat="31.12979" lon="-7.9144">
        <ele>1888.04</ele>
        <time>2018-06-22T09:00:23Z</time>
      </trkpt>
      <trkpt lat="31.12982" lon="-7.9147">
        <ele>1889.61</ele>
        <time>2018-06-22T09:01:23Z</time>
      </trkpt>
      <trkpt lat="31.12984" lon="-7.91479">
        <ele>1889.33</ele>
        <time>2018-06-22T09:02:24Z</time>
      </trkpt>
      <trkpt lat="31.13041" lon="-7.91468">
        <ele>1887.67</ele>
        <time>2018-06-22T09:03:24Z</time>
      </trkpt>
      <trkpt lat="31.131" lon="-7.91458">
        <ele>1884.82</ele>
        <time>2018-06-22T09:04:24Z</time>
      </trkpt>
      <trkpt lat="31.13155" lon="-7.91424">
        <ele>1883.92</ele>
        <time>2018-06-22T09:05:24Z</time>
      </trkpt>
      <trkpt lat="31.13204" lon="-7.91371">
        <ele>1881.45</ele>
        <time>2018-06-22T09:06:24Z</time>
      </trkpt>
      <trkpt lat="31.13248" lon="-7.9138">
        <ele>1877.48</ele>
        <time>2018-06-22T09:07:24Z</time>
      </trkpt>
      <trkpt lat="31.13275" lon="-7.91445">
        <ele>1880.45</ele>
        <time>2018-06-22T09:08:24Z</time>
      </trkpt>
      <trkpt lat="31.13317" lon="-7.91496">
        <ele>1879.77</ele>
        <time>2018-06-22T09:09:24Z</time>
      </trkpt>
      <trkpt lat="31.13336" lon="-7.91486">
        <ele>1876.52</ele>
        <time>2018-06-22T09:10:25Z</time>
      </trkpt>
      <trkpt lat="31.13335" lon="-7.91487">
        <ele>1876.46</ele>
        <time>2018-06-22T09:11:26Z</time>
      </trkpt>
      <trkpt lat="31.13383" lon="-7.91455">
        <ele>1876.56</ele>
        <time>2018-06-22T09:12:26Z</time>
      </trkpt>
      <trkpt lat="31.1345" lon="-7.91423">
        <ele>1875.55</ele>
        <time>2018-06-22T09:13:26Z</time>
      </trkpt>
      <trkpt lat="31.1347" lon="-7.91369">
        <ele>1869.99</ele>
        <time>2018-06-22T09:14:26Z</time>
      </trkpt>
      <trkpt lat="31.13501" lon="-7.9132">
        <ele>1864.23</ele>
        <time>2018-06-22T09:15:26Z</time>
      </trkpt>
      <trkpt lat="31.13546" lon="-7.91274">
        <ele>1860.76</ele>
        <time>2018-06-22T09:16:26Z</time>
      </trkpt>
      <trkpt lat="31.1361" lon="-7.91217">
        <ele>1855.51</ele>
        <time>2018-06-22T09:17:26Z</time>
      </trkpt>
      <trkpt lat="31.13625" lon="-7.91137">
        <ele>1852.24</ele>
        <time>2018-06-22T09:18:26Z</time>
      </trkpt>
      <trkpt lat="31.13683" lon="-7.91096">
        <ele>1852.6</ele>
        <time>2018-06-22T09:19:26Z</time>
      </trkpt>
      <trkpt lat="31.13701" lon="-7.91019">
        <ele>1852.24</ele>
        <time>2018-06-22T09:20:26Z</time>
      </trkpt>
      <trkpt lat="31.13746" lon="-7.9095">
        <ele>1845.95</ele>
        <time>2018-06-22T09:21:26Z</time>
      </trkpt>
      <trkpt lat="31.13787" lon="-7.90883">
        <ele>1841.24</ele>
        <time>2018-06-22T09:22:26Z</time>
      </trkpt>
      <trkpt lat="31.1386" lon="-7.90863">
        <ele>1834.52</ele>
        <time>2018-06-22T09:23:26Z</time>
      </trkpt>
      <trkpt lat="31.13887" lon="-7.90859">
        <ele>1829.65</ele>
        <time>2018-06-22T09:24:26Z</time>
      </trkpt>
      <trkpt lat="31.13886" lon="-7.90854">
        <ele>1829.6</ele>
        <time>2018-06-22T09:25:26Z</time>
      </trkpt>
      <trkpt lat="31.13888" lon="-7.90852">
        <ele>1829.58</ele>
        <time>2018-06-22T09:26:26Z</time>
      </trkpt>
      <trkpt lat="31.13883" lon="-7.90853">
        <ele>1829.61</ele>
        <time>2018-06-22T09:27:26Z</time>
      </trkpt>
      <trkpt lat="31.13901" lon="-7.90839">
        <ele>1831.89</ele>
        <time>2018-06-22T09:28:26Z</time>
      </trkpt>
      <trkpt lat="31.13873" lon="-7.9089">
        <ele>1826.03</ele>
        <time>2018-06-22T09:29:26Z</time>
      </trkpt>
      <trkpt lat="31.13849" lon="-7.90917">
        <ele>1821.57</ele>
        <time>2018-06-22T09:30:26Z</time>
      </trkpt>
      <trkpt lat="31.13819" lon="-7.90983">
        <ele>1814.46</ele>
        <time>2018-06-22T09:31:26Z</time>
      </trkpt>
      <trkpt lat="31.13797" lon="-7.91018">
        <ele>1810.1</ele>
        <time>2018-06-22T09:32:26Z</time>
      </trkpt>
      <trkpt lat="31.13788" lon="-7.91058">
        <ele>1807.01</ele>
        <time>2018-06-22T09:33:26Z</time>
      </trkpt>
      <trkpt lat="31.13767" lon="-7.91119">
        <ele>1800.46</ele>
        <time>2018-06-22T09:34:26Z</time>
      </trkpt>
      <trkpt lat="31.13749" lon="-7.91188">
        <ele>1794.39</ele>
        <time>2018-06-22T09:35:26Z</time>
      </trkpt>
      <trkpt lat="31.13722" lon="-7.91266">
        <ele>1788.77</ele>
        <time>2018-06-22T09:36:26Z</time>
      </trkpt>
      <trkpt lat="31.13678" lon="-7.91321">
        <ele>1782.04</ele>
        <time>2018-06-22T09:37:26Z</time>
      </trkpt>
      <trkpt lat="31.13667" lon="-7.914">
        <ele>1775.71</ele>
        <time>2018-06-22T09:38:26Z</time>
      </trkpt>
      <trkpt lat="31.13633" lon="-7.91456">
        <ele>1772.78</ele>
        <time>2018-06-22T09:39:26Z</time>
      </trkpt>
      <trkpt lat="31.13598" lon="-7.9152">
        <ele>1767.7</ele>
        <time>2018-06-22T09:40:26Z</time>
      </trkpt>
      <trkpt lat="31.13579" lon="-7.91581">
        <ele>1763.69</ele>
        <time>2018-06-22T09:41:26Z</time>
      </trkpt>
      <trkpt lat="31.13587" lon="-7.91653">
        <ele>1758.21</ele>
        <time>2018-06-22T09:42:26Z</time>
      </trkpt>
      <trkpt lat="31.13637" lon="-7.91702">
        <ele>1752.13</ele>
        <time>2018-06-22T09:43:26Z</time>
      </trkpt>
      <trkpt lat="31.13663" lon="-7.91723">
        <ele>1749.5</ele>
        <time>2018-06-22T09:44:26Z</time>
      </trkpt>
      <trkpt lat="31.1367" lon="-7.91725">
        <ele>1749.08</ele>
        <time>2018-06-22T09:45:27Z</time>
      </trkpt>
      <trkpt lat="31.13666" lon="-7.91765">
        <ele>1747.82</ele>
        <time>2018-06-22T09:46:27Z</time>
      </trkpt>
      <trkpt lat="31.13632" lon="-7.91804">
        <ele>1745.14</ele>
        <time>2018-06-22T09:47:27Z</time>
      </trkpt>
      <trkpt lat="31.13602" lon="-7.91838">
        <ele>1740.97</ele>
        <time>2018-06-22T09:48:27Z</time>
      </trkpt>
      <trkpt lat="31.136" lon="-7.91846">
        <ele>1740.72</ele>
        <time>2018-06-22T09:49:27Z</time>
      </trkpt>
      <trkpt lat="31.13644" lon="-7.91897">
        <ele>1735.69</ele>
        <time>2018-06-22T09:50:27Z</time>
      </trkpt>
      <trkpt lat="31.13616" lon="-7.91907">
        <ele>1734.7</ele>
        <time>2018-06-22T09:51:27Z</time>
      </trkpt>
      <trkpt lat="31.13584" lon="-7.91924">
        <ele>1734.61</ele>
        <time>2018-06-22T09:52:27Z</time>
      </trkpt>
      <trkpt lat="31.13566" lon="-7.91961">
        <ele>1735.82</ele>
        <time>2018-06-22T09:53:27Z</time>
      </trkpt>
      <trkpt lat="31.13541" lon="-7.9199">
        <ele>1739.68</ele>
        <time>2018-06-22T09:54:27Z</time>
      </trkpt>
      <trkpt lat="31.13515" lon="-7.92012">
        <ele>1744.35</ele>
        <time>2018-06-22T09:55:27Z</time>
      </trkpt>
      <trkpt lat="31.13511" lon="-7.92032">
        <ele>1750.97</ele>
        <time>2018-06-22T09:56:27Z</time>
      </trkpt>
      <trkpt lat="31.13528" lon="-7.92102">
        <ele>1756.21</ele>
        <time>2018-06-22T09:57:27Z</time>
      </trkpt>
      <trkpt lat="31.13535" lon="-7.92165">
        <ele>1761.41</ele>
        <time>2018-06-22T09:58:27Z</time>
      </trkpt>
      <trkpt lat="31.13544" lon="-7.92233">
        <ele>1769.89</ele>
        <time>2018-06-22T09:59:27Z</time>
      </trkpt>
      <trkpt lat="31.13521" lon="-7.92307">
        <ele>1777.34</ele>
        <time>2018-06-22T10:00:27Z</time>
      </trkpt>
      <trkpt lat="31.13504" lon="-7.92384">
        <ele>1782.82</ele>
        <time>2018-06-22T10:01:27Z</time>
      </trkpt>
      <trkpt lat="31.13486" lon="-7.92459">
        <ele>1789.37</ele>
        <time>2018-06-22T10:02:27Z</time>
      </trkpt>
      <trkpt lat="31.13467" lon="-7.92528">
        <ele>1796.36</ele>
        <time>2018-06-22T10:03:27Z</time>
      </trkpt>
      <trkpt lat="31.1344" lon="-7.92609">
        <ele>1802.55</ele>
        <time>2018-06-22T10:04:27Z</time>
      </trkpt>
      <trkpt lat="31.13423" lon="-7.92691">
        <ele>1807.03</ele>
        <time>2018-06-22T10:05:27Z</time>
      </trkpt>
      <trkpt lat="31.13441" lon="-7.92766">
        <ele>1807.67</ele>
        <time>2018-06-22T10:06:27Z</time>
      </trkpt>
      <trkpt lat="31.13463" lon="-7.92809">
        <ele>1808.21</ele>
        <time>2018-06-22T10:07:27Z</time>
      </trkpt>
      <trkpt lat="31.13461" lon="-7.92809">
        <ele>1809.85</ele>
        <time>2018-06-22T10:08:27Z</time>
      </trkpt>
      <trkpt lat="31.13462" lon="-7.92817">
        <ele>1810.11</ele>
        <time>2018-06-22T10:09:27Z</time>
      </trkpt>
      <trkpt lat="31.13476" lon="-7.92809">
        <ele>1810.28</ele>
        <time>2018-06-22T10:10:27Z</time>
      </trkpt>
      <trkpt lat="31.13405" lon="-7.92822">
        <ele>1810.16</ele>
        <time>2018-06-22T10:11:27Z</time>
      </trkpt>
      <trkpt lat="31.13462" lon="-7.92827">
        <ele>1807.39</ele>
        <time>2018-06-22T10:12:27Z</time>
      </trkpt>
      <trkpt lat="31.13453" lon="-7.92822">
        <ele>1807.62</ele>
        <time>2018-06-22T10:13:27Z</time>
      </trkpt>
      <trkpt lat="31.13476" lon="-7.92815">
        <ele>1810.49</ele>
        <time>2018-06-22T10:14:27Z</time>
      </trkpt>
      <trkpt lat="31.13478" lon="-7.92811">
        <ele>1807.47</ele>
        <time>2018-06-22T10:15:27Z</time>
      </trkpt>
      <trkpt lat="31.1348" lon="-7.92836">
        <ele>1807.46</ele>
        <time>2018-06-22T10:16:27Z</time>
      </trkpt>
      <trkpt lat="31.1345" lon="-7.92843">
        <ele>1807.14</ele>
        <time>2018-06-22T10:17:27Z</time>
      </trkpt>
      <trkpt lat="31.13453" lon="-7.92836">
        <ele>1807.07</ele>
        <time>2018-06-22T10:19:49Z</time>
      </trkpt>
    </trkseg>
  </trk>
</gpx>